Terminal Aerodrome Forecast
Issued by NWS Pendleton, OR

Home | Current Version | Previous Version | Text Only | Print | Product List | Glossary On
Versions: 1 2 3 4 5 6 7 8 9 10 11 12 13
000
FTUS46 KPDT 310100 AAA
TAFPDT
TAF AMD
KPDT 310100Z 3101/3124 34013KT P6SM FEW070 FEW150 SCT250
     FM310400 24005KT P6SM FEW150 SCT200
     FM310900 19007KT P6SM FEW130 SCT250
     FM311400 VRB05KT P6SM SCT150 BKN250
     FM312000 33009KT P6SM SCT150 BKN200=

USA.gov is the U.S. government's official web portal to all federal, state and local government web resources and services.